Weslaco Annex Farm's Hourly Summary for Tuesday, March 14, 2017
Hour Temp
(f)
RH
(%)
Solar Rad.
(MJ/m2)
Rainfall
(in)
Wind
(mph)
3/14/2017 12:00 AM 59 98 0 0 4.19
3/14/2017 1:00 AM 57 99 0 0 3.42
3/14/2017 2:00 AM 56 99 0 0 2.64
3/14/2017 3:00 AM 55 100 0 0 0.49
3/14/2017 4:00 AM 53 100 0 0 1.26
3/14/2017 5:00 AM 53 100 0 0 1.25
3/14/2017 6:00 AM 52 100 0 0 1.22
3/14/2017 7:00 AM 52 100 0.01 0 2.57
3/14/2017 8:00 AM 54 99 0.24 0 3.49
3/14/2017 9:00 AM 59 92 0.63 0 4.17
3/14/2017 10:00 AM 65 83 0.96 0 3.03
3/14/2017 11:00 AM 71 69 1.23 0 3
3/14/2017 12:00 PM 72 62 1.15 0 2.91
3/14/2017 1:00 PM 74 58 1.07 0 2.78
3/14/2017 2:00 PM 75 52 1.18 0 3.02
3/14/2017 3:00 PM 75 49 0.99 0 2.98
3/14/2017 4:00 PM 76 48 0.99 0 3.67
3/14/2017 5:00 PM 76 51 0.69 0 3.18
3/14/2017 6:00 PM 74 55 0.28 0 3.33
3/14/2017 7:00 PM 70 63 0.04 0 3.29
3/14/2017 8:00 PM 66 68 0 0 3.54
3/14/2017 9:00 PM 64 72 0 0 2.88
3/14/2017 10:00 PM 62 76 0 0 2.31
3/14/2017 11:00 PM 61 81 0 0 1.79
Data Summary 63 78 9.46 0.00 2.77